CYTZ

Toronto / City Centre Airport

Toronto, , Canada
METAR CYTZ 192000Z AUTO 13007KT 9SM CLR 20/11 A2999 RMK SLP156 DENSITY ALT 800FT
Observed Flight Rules
Jun-19 @ 20:00 UTC (20 minutes ago) Visual Flight Rules
Wind Visibility Clouds
130° at 7 knots 9 miles
  • Clear skies
Temperatures Readings
Current 20°C / 68°F
Dewpoint 11°C / 52°F
Humidity 56%
Altimeter 29.99" Hg
Pressure 1015.6 hPa
Elevation 77
METAR CYTZ 192000Z AUTO 13007KT 9SM CLR 20/11 A2999 RMK SLP156 DENSITY ALT 800FT
Observed Flight Rules
Jun-19 @ 20:00 UTC
(20 minutes ago)
VFR
Wind Visibility
130° at 7 knots 9 miles
Clouds
  • Clear skies
Temperature Dewpoint
20°C / 68°F 11°C / 52°F
Humidity Altimeter Pressure
56% 29.99" Hg 1015.6 hPa